Atmospheric History
12/06/2017 18:42  to  12/7/2017 18:42
Change End Date:
To complete the export process:
1) Select all of the data below
2) Copy the data to the clipboard
3) Open a word processor such as Notepad
4) Paste the data into the word processor
5) Save the file

Date/Time (MST), AirTemp, RH, Dewpoint ,AvgWindSpeed, GustWindSpeed, WindDirection, PrecipType, PrecipIntensity, PrecipAccumulation, PrecipRate
12/07/2017 18:32, 11, 85, 8 ,1, 5, NE, None, None, ,  
12/07/2017 18:27, 13, 85, 9 ,4, 5, NE, None, None, ,  
12/07/2017 18:22, 15, 86, 12 ,0, 4, S, None, None, ,  
12/07/2017 18:12, 19, 83, 14 ,1, 4, NE, None, None, ,  
12/07/2017 18:12, 20, 85, 16 ,1, 2, NE, None, None, ,  
12/07/2017 18:02, 18, 83, 13 ,1, 2, NE, None, None, ,  
12/07/2017 17:57, 17, 81, 12 ,0, 1, NE, None, None, ,  
12/07/2017 17:52, 17, 80, 12 ,1, 1, NE, None, None, ,  
12/07/2017 17:42, 17, 80, 12 ,1, 1, N, None, None, ,  
12/07/2017 17:40, 16, 79, 11 ,1, 1, N, None, None, ,  
12/07/2017 17:32, 17, 74, 10 ,0, 0, NE, None, None, ,  
12/07/2017 17:25, 20, 72, 12 ,0, 1, E, None, None, ,  
12/07/2017 17:22, 21, 71, 13 ,0, 1, S, None, None, ,  
12/07/2017 17:12, 24, 71, 16 ,0, 1, SE, None, None, ,  
12/07/2017 17:10, 24, 71, 17 ,1, 1, SE, None, None, ,  
12/07/2017 17:02, 24, 70, 16 ,0, 1, SE, None, None, ,  
12/07/2017 16:56, 24, 69, 15 ,0, 1, SE, None, None, ,  
12/07/2017 16:52, 23, 69, 15 ,0, 1, SE, None, None, ,  
12/07/2017 16:42, 23, 64, 13 ,1, 1, SW, None, None, ,  
12/07/2017 16:41, 24, 66, 15 ,0, 1, NE, None, None, ,  
12/07/2017 16:32, 25, 65, 15 ,1, 3, SW, None, None, ,  
12/07/2017 16:26, 26, 64, 15 ,0, 2, NE, None, None, ,  
12/07/2017 16:22, 25, 64, 15 ,1, 2, S, None, None, ,  
12/07/2017 16:12, 28, 56, 14 ,1, 1, E, None, None, ,  
12/07/2017 16:11, 30, 52, 15 ,0, 1, E, None, None, ,  
12/07/2017 16:02, 35, 49, 18 ,1, 1, E, None, None, ,  
12/07/2017 15:57, 35, 46, 17 ,1, 3, N, None, None, ,  
12/07/2017 15:52, 34, 49, 18 ,2, 3, NE, None, None, ,  
12/07/2017 15:42, 33, 52, 18 ,2, 3, NE, None, None, ,  
12/07/2017 15:41, 33, 52, 18 ,2, 3, NE, None, None, ,  
12/07/2017 15:32, 32, 53, 17 ,1, 1, SE, None, None, ,  
12/07/2017 15:27, 33, 54, 19 ,0, 1, E, None, None, ,  
12/07/2017 15:22, 31, 54, 17 ,0, 3, SE, None, None, ,  
12/07/2017 15:12, 32, 55, 18 ,1, 2, E, None, None, ,  
12/07/2017 15:10, 32, 57, 19 ,1, 2, E, None, None, ,  
12/07/2017 15:02, 33, 52, 18 ,1, 1, S, None, None, ,  
12/07/2017 14:57, 34, 53, 19 ,0, 0, S, None, None, ,  
12/07/2017 14:52, 34, 54, 19 ,0, 0, S, None, None, ,  
12/07/2017 14:42, 30, 60, 18 ,1, 3, S, None, None, ,  
12/07/2017 14:41, 29, 60, 18 ,1, 3, S, None, None, ,  
12/07/2017 14:32, 30, 61, 18 ,1, 3, S, None, None, ,  
12/07/2017 14:26, 29, 60, 17 ,2, 3, S, None, None, ,  
12/07/2017 14:22, 29, 64, 18 ,1, 3, S, None, None, ,  
12/07/2017 14:12, 27, 66, 17 ,2, 4, S, None, None, ,  
12/07/2017 14:12, 26, 66, 17 ,2, 4, S, None, None, ,  
12/07/2017 14:02, 24, 65, 14 ,1, 2, S, None, None, ,  
12/07/2017 13:57, 24, 62, 14 ,1, 1, SW, None, None, ,  
12/07/2017 13:52, 25, 66, 15 ,1, 1, SW, None, None, ,  
12/07/2017 13:42, 26, 66, 16 ,1, 1, SW, None, None, ,  
12/07/2017 13:42, 26, 66, 16 ,1, 1, SW, None, None, ,  
12/07/2017 13:32, 23, 74, 16 ,0, 1, N, None, None, ,  
12/07/2017 13:27, 21, 76, 15 ,0, 1, N, None, None, ,  
12/07/2017 13:22, 21, 79, 15 ,0, 1, S, None, None, ,  
12/07/2017 13:11, 19, 81, 14 ,1, 2, S, None, None, ,  
12/07/2017 13:11, 19, 81, 14 ,1, 2, S, None, None, ,  
12/07/2017 13:01, 20, 82, 15 ,0, 2, N, None, None, ,  
12/07/2017 12:57, 19, 84, 15 ,1, 2, NE, None, None, ,  
12/07/2017 12:51, 17, 83, 13 ,0, 0, S, None, None, ,  
12/07/2017 12:42, 17, 84, 13 ,0, 1, S, None, None, ,  
12/07/2017 12:41, 17, 84, 13 ,0, 1, S, None, None, ,  
12/07/2017 12:31, 15, 84, 12 ,1, 2, S, None, None, ,  
12/07/2017 12:26, 13, 84, 10 ,1, 2, S, None, None, ,  
12/07/2017 12:21, 12, 84, 8 ,0, 1, S, None, None, ,  
12/07/2017 12:12, 12, 84, 8 ,0, 2, SE, None, None, ,  
12/07/2017 12:11, 12, 84, 8 ,0, 2, SE, None, None, ,  
12/07/2017 12:01, 12, 85, 8 ,1, 2, S, None, None, ,  
12/07/2017 11:57, 10, 85, 7 ,0, 2, S, None, None, ,  
12/07/2017 11:51, 8, 83, 4 ,1, 2, SW, None, None, ,  
12/07/2017 11:41, 8, 84, 5 ,0, 1, NE, None, None, ,  
12/07/2017 11:31, 6, 83, 2 ,0, 1, SE, None, None, ,  
12/07/2017 11:27, 7, 83, 3 ,0, 1, S, None, None, ,  
12/07/2017 11:21, 7, 84, 4 ,0, 0, E, None, None, ,  
12/07/2017 11:12, 10, 85, 6 ,0, 1, NE, None, None, ,  
12/07/2017 11:11, 10, 85, 6 ,0, 1, NE, None, None, ,  
12/07/2017 11:01, 8, 84, 4 ,1, 1, NE, None, None, ,  
12/07/2017 10:56, 6, 83, 2 ,0, 1, NE, None, None, ,  
12/07/2017 10:51, 5, 83, 1 ,0, 1, NE, None, None, ,  
12/07/2017 10:41, 4, 83, 0 ,0, 1, S, None, None, ,  
12/07/2017 10:41, 4, 83, 0 ,0, 1, S, None, None, ,  
12/07/2017 10:31, 5, 83, 1 ,0, 1, S, None, None, ,  
12/07/2017 10:26, 4, 83, 0 ,0, 1, S, None, None, ,  
12/07/2017 10:21, 5, 83, 1 ,0, 1, NE, None, None, ,  
12/07/2017 10:12, 5, 83, 1 ,1, 1, E, None, None, ,  
12/07/2017 10:11, 5, 83, 1 ,1, 1, E, None, None, ,  
12/07/2017 10:01, 5, 83, 1 ,0, 1, SE, None, None, ,  
12/07/2017 09:57, 4, 83, 0 ,0, 1, SE, None, None, ,  
12/07/2017 09:51, 3, 82, -1 ,0, 2, E, None, None, ,  
12/07/2017 09:42, 1, 81, -4 ,0, 1, SW, None, None, ,  
12/07/2017 09:41, 0, 81, -4 ,0, 0, SW, None, None, ,  
12/07/2017 09:31, -1, 80, -5 ,0, 0, SW, None, None, ,  
12/07/2017 09:27, -2, 80, -6 ,0, 0, SW, None, None, ,  
12/07/2017 09:21, -3, 79, -8 ,0, 1, SW, None, None, ,  
12/07/2017 09:11, -3, 79, -8 ,0, 3, SW, None, None, ,  
12/07/2017 09:11, -3, 79, -8 ,1, 3, SW, None, None, ,  
12/07/2017 09:01, -1, 80, -6 ,1, 2, S, None, None, ,  
12/07/2017 08:56, -1, 80, -6 ,0, 1, S, None, None, ,  
12/07/2017 08:51, -1, 80, -6 ,0, 1, NE, None, None, ,  
12/07/2017 08:41, -3, 79, -8 ,1, 1, NE, None, None, ,  
12/07/2017 08:41, -3, 79, -8 ,0, 1, NE, None, None, ,  
12/07/2017 08:31, -2, 79, -7 ,0, 1, NE, None, None, ,  
12/07/2017 08:26, -2, 80, -7 ,0, 1, NE, None, None, ,  
12/07/2017 08:21, -2, 80, -7 ,0, 1, NE, None, None, ,  
12/07/2017 08:11, -3, 79, -8 ,1, 1, NE, None, None, ,  
12/07/2017 08:11, -3, 79, -8 ,1, 1, NE, None, None, ,  
12/07/2017 08:00, -3, 79, -8 ,0, 1, NE, None, None, ,  
12/07/2017 07:56, -3, 79, -7 ,1, 1, NE, None, None, ,  
12/07/2017 07:50, -2, 79, -7 ,0, 2, NE, None, None, ,  
12/07/2017 07:40, -2, 80, -7 ,0, 2, N, None, None, ,  
12/07/2017 07:40, -2, 80, -7 ,0, 2, N, None, None, ,  
12/07/2017 07:30, -3, 79, -8 ,0, 1, S, None, None, ,  
12/07/2017 07:25, -3, 79, -8 ,1, 1, S, None, None, ,  
12/07/2017 07:20, -3, 79, -8 ,0, 1, S, None, None, ,  
12/07/2017 07:11, -4, 79, -9 ,0, 1, S, None, None, ,  
12/07/2017 07:10, -4, 79, -9 ,0, 1, S, None, None, ,  
12/07/2017 07:00, -3, 79, -8 ,0, 1, S, None, None, ,  
12/07/2017 06:57, -3, 79, -8 ,0, 1, S, None, None, ,  
12/07/2017 06:50, -2, 79, -7 ,0, 1, E, None, None, ,  
12/07/2017 06:42, -2, 80, -7 ,1, 4, S, None, None, ,  
12/07/2017 06:40, -2, 80, -7 ,1, 4, S, None, None, ,  
12/07/2017 06:30, -3, 79, -8 ,0, 2, NE, None, None, ,  
12/07/2017 06:27, -3, 79, -8 ,0, 1, W, None, None, ,  
12/07/2017 06:20, -3, 79, -8 ,0, 2, W, None, None, ,  
12/07/2017 06:12, -3, 79, -8 ,1, 2, S, None, None, ,  
12/07/2017 06:10, -3, 79, -8 ,1, 1, SW, None, None, ,  
12/07/2017 06:00, -3, 79, -8 ,1, 2, NW, None, None, ,  
12/07/2017 05:57, -2, 79, -7 ,0, 2, SE, None, None, ,  
12/07/2017 05:50, -2, 80, -6 ,2, 2, NE, None, None, ,  
12/07/2017 05:42, -2, 80, -7 ,1, 1, NE, None, None, ,  
12/07/2017 05:40, -3, 80, -7 ,1, 1, NE, None, None, ,  
12/07/2017 05:30, -1, 80, -6 ,1, 1, E, None, None, ,  
12/07/2017 05:27, -1, 80, -6 ,0, 1, N, None, None, ,  
12/07/2017 05:20, -3, 79, -7 ,0, 2, N, None, None, ,  
12/07/2017 05:12, -2, 80, -6 ,0, 1, SE, None, None, ,  
12/07/2017 05:10, -2, 80, -7 ,0, 1, E, None, None, ,  
12/07/2017 05:00, -3, 79, -8 ,1, 1, N, None, None, ,  
12/07/2017 04:57, -3, 79, -8 ,0, 1, E, None, None, ,  
12/07/2017 04:50, -4, 79, -9 ,1, 1, NE, None, None, ,  
12/07/2017 04:42, -4, 79, -9 ,0, 1, S, None, None, ,  
12/07/2017 04:40, -4, 79, -9 ,0, 1, S, None, None, ,  
12/07/2017 04:30, -3, 79, -7 ,0, 1, S, None, None, ,  
12/07/2017 04:27, -3, 79, -8 ,0, 2, S, None, None, ,  
12/07/2017 04:20, -3, 79, -8 ,2, 2, S, None, None, ,  
12/07/2017 04:12, -3, 79, -8 ,0, 1, SW, None, None, ,  
12/07/2017 04:10, -3, 79, -8 ,0, 1, S, None, None, ,  
12/07/2017 04:00, -1, 80, -6 ,1, 1, S, None, None, ,  
12/07/2017 03:57, -1, 80, -6 ,1, 2, S, None, None, ,  
12/07/2017 03:50, -2, 80, -7 ,1, 2, S, None, None, ,  
12/07/2017 03:42, -3, 80, -7 ,0, 1, SW, None, None, ,  
12/07/2017 03:40, -3, 80, -8 ,0, 2, SW, None, None, ,  
12/07/2017 03:30, -3, 79, -8 ,1, 2, S, None, None, ,  
12/07/2017 03:27, -2, 79, -7 ,1, 2, S, None, None, ,  
12/07/2017 03:20, 1, 82, -4 ,2, 2, N, None, None, ,  
12/07/2017 03:12, -1, 81, -5 ,2, 3, NE, None, None, ,  
12/07/2017 03:10, -2, 80, -6 ,1, 3, NE, None, None, ,  
12/07/2017 03:00, -2, 80, -7 ,1, 1, S, None, None, ,  
12/07/2017 02:57, -2, 80, -6 ,0, 1, S, None, None, ,  
12/07/2017 02:50, -1, 81, -5 ,0, 1, S, None, None, ,  
12/07/2017 02:42, -1, 80, -6 ,0, 1, NE, None, None, ,  
12/07/2017 02:40, -2, 80, -6 ,0, 1, NE, None, None, ,  
12/07/2017 02:29, -2, 80, -7 ,0, 1, NE, None, None, ,  
12/07/2017 02:27, -2, 80, -7 ,0, 1, NE, None, None, ,  
12/07/2017 02:19, -1, 80, -5 ,0, 1, N, None, None, ,  
12/07/2017 02:12, -1, 81, -5 ,0, 1, N, None, None, ,  
12/07/2017 02:09, -1, 80, -6 ,1, 1, N, None, None, ,  
12/07/2017 01:59, -2, 80, -6 ,0, 2, E, None, None, ,  
12/07/2017 01:57, -2, 80, -7 ,0, 2, E, None, None, ,  
12/07/2017 01:49, -3, 79, -8 ,0, 3, W, None, None, ,  
12/07/2017 01:42, -3, 79, -8 ,2, 3, SE, None, None, ,  
12/07/2017 01:39, -2, 79, -7 ,2, 3, W, None, None, ,  
12/07/2017 01:29, 0, 81, -5 ,0, 2, NE, None, None, ,  
12/07/2017 01:27, -1, 81, -5 ,0, 2, NE, None, None, ,  
12/07/2017 01:19, -2, 80, -7 ,2, 2, NE, None, None, ,  
12/07/2017 01:13, -3, 79, -8 ,1, 2, N, None, None, ,  
12/07/2017 01:09, -3, 79, -8 ,0, 1, NE, None, None, ,  
12/07/2017 00:59, -3, 80, -8 ,0, 2, E, None, None, ,  
12/07/2017 00:57, -4, 79, -9 ,1, 2, N, None, None, ,  
12/07/2017 00:49, -1, 80, -6 ,1, 4, S, None, None, ,  
12/07/2017 00:42, -2, 80, -6 ,4, 4, S, None, None, ,  
12/07/2017 00:39, -2, 80, -6 ,1, 3, N, None, None, ,  
12/07/2017 00:29, 0, 81, -4 ,1, 3, N, None, None, ,  
12/07/2017 00:27, 0, 82, -4 ,2, 3, NE, None, None, ,  
12/07/2017 00:19, -2, 80, -7 ,1, 2, NE, None, None, ,  
12/07/2017 00:12, -1, 80, -6 ,0, 4, S, None, None, ,  
12/07/2017 00:09, 0, 81, -5 ,4, 4, S, None, None, ,  
12/06/2017 23:59, 0, 82, -4 ,2, 2, NE, None, None, ,  
12/06/2017 23:57, 0, 82, -5 ,2, 2, NE, None, None, ,  
12/06/2017 23:49, -2, 80, -7 ,0, 1, N, None, None, ,  
12/06/2017 23:43, -3, 80, -7 ,1, 1, S, None, None, ,  
12/06/2017 23:39, -3, 80, -7 ,0, 1, S, None, None, ,  
12/06/2017 23:29, -3, 80, -7 ,1, 2, S, None, None, ,  
12/06/2017 23:27, -3, 80, -7 ,1, 2, S, None, None, ,  
12/06/2017 23:19, 0, 80, -5 ,1, 1, S, None, None, ,  
12/06/2017 23:12, 2, 83, -2 ,0, 1, NE, None, None, ,  
12/06/2017 23:09, 1, 82, -3 ,0, 2, NE, None, None, ,  
12/06/2017 22:59, 0, 81, -5 ,0, 2, N, None, None, ,  
12/06/2017 22:57, -1, 81, -5 ,0, 2, N, None, None, ,  
12/06/2017 22:49, -2, 81, -6 ,1, 2, NE, None, None, ,  
12/06/2017 22:42, -2, 81, -7 ,1, 2, NE, None, None, ,  
12/06/2017 22:39, -2, 81, -7 ,1, 3, NE, None, None, ,  
12/06/2017 22:29, -2, 81, -6 ,0, 2, S, None, None, ,  
12/06/2017 22:27, -2, 81, -6 ,0, 2, S, None, None, ,  
12/06/2017 22:19, 0, 81, -5 ,1, 2, S, None, None, ,  
12/06/2017 22:13, 1, 82, -3 ,0, 1, SW, None, None, ,  
12/06/2017 22:09, 2, 83, -2 ,1, 1, SW, None, None, ,  
12/06/2017 21:59, 1, 82, -3 ,0, 1, NW, None, None, ,  
12/06/2017 21:58, 1, 83, -3 ,0, 1, NW, None, None, ,  
12/06/2017 21:49, 0, 82, -4 ,1, 2, N, None, None, ,  
12/06/2017 21:42, -1, 82, -5 ,1, 2, NE, None, None, ,  
12/06/2017 21:39, 0, 82, -4 ,0, 1, S, None, None, ,  
12/06/2017 21:29, 1, 82, -3 ,0, 2, S, None, None, ,  
12/06/2017 21:27, 1, 82, -3 ,1, 2, S, None, None, ,  
12/06/2017 21:19, 4, 84, 1 ,0, 3, N, None, None, ,  
12/06/2017 21:12, 4, 85, 1 ,2, 3, NE, None, None, ,  
12/06/2017 21:09, 3, 84, -1 ,2, 3, N, None, None, ,  
12/06/2017 20:58, 2, 83, -2 ,0, 1, S, None, None, ,  
12/06/2017 20:57, 2, 83, -2 ,0, 1, S, None, None, ,  
12/06/2017 20:48, 2, 84, -1 ,1, 2, S, None, None, ,  
12/06/2017 20:42, 1, 83, -2 ,1, 2, SE, None, None, ,  
12/06/2017 20:38, 1, 83, -3 ,0, 2, S, None, None, ,  
12/06/2017 20:28, 4, 85, 1 ,1, 2, S, None, None, ,  
12/06/2017 20:27, 4, 84, 1 ,1, 2, S, None, None, ,  
12/06/2017 20:18, 3, 84, 0 ,1, 2, S, None, None, ,  
12/06/2017 20:12, 5, 84, 1 ,0, 2, S, None, None, ,  
12/06/2017 20:08, 6, 85, 3 ,1, 1, S, None, None, ,  
12/06/2017 19:58, 5, 84, 1 ,2, 2, S, None, None, ,  
12/06/2017 19:57, 5, 84, 1 ,1, 2, S, None, None, ,  
12/06/2017 19:48, 5, 84, 1 ,1, 2, S, None, None, ,  
12/06/2017 19:42, 4, 85, 1 ,0, 2, S, None, None, ,  
12/06/2017 19:38, 3, 84, 0 ,1, 3, S, None, None, ,  
12/06/2017 19:28, 5, 84, 1 ,0, 2, E, None, None, ,  
12/06/2017 19:27, 5, 84, 2 ,0, 2, E, None, None, ,  
12/06/2017 19:18, 7, 84, 3 ,0, 2, NE, None, None, ,  
12/06/2017 19:13, 8, 84, 4 ,1, 2, NE, None, None, ,  
12/06/2017 19:08, 9, 85, 5 ,1, 2, NE, None, None, ,  
12/06/2017 18:58, 8, 83, 4 ,1, 3, NE, None, None, ,  
12/06/2017 18:57, 8, 84, 4 ,1, 3, NE, None, None, ,  
12/06/2017 18:48, 9, 84, 5 ,0, 1, NE, None, None, ,  
12/06/2017 18:42, 9, 83, 5 ,0, 0, NE, None, None, ,  
Change End Date:

Copyright © 1998-2015 Vaisala, Inc.
All Rights Reserved
Send comments about the data to:
SCAN Web ® is a registered trademark of Vaisala, Inc.
SCAN Web Version 6.0